createdAt,value
2018-12-19T00:01:45.052Z,56.77
2018-12-19T00:04:12.524Z,55.95
2018-12-19T00:06:40.005Z,55.76
2018-12-19T00:09:07.671Z,56.39
2018-12-19T00:11:35.139Z,55.79
2018-12-19T00:14:02.666Z,55.96
2018-12-19T00:16:30.134Z,56.56
2018-12-19T00:18:57.599Z,56.07
2018-12-19T00:21:25.049Z,57.37
2018-12-19T00:23:52.516Z,60.56
2018-12-19T00:26:19.966Z,57.78
2018-12-19T00:28:47.400Z,56.34
2018-12-19T00:31:14.874Z,57.71
2018-12-19T00:33:42.343Z,56.11
2018-12-19T00:36:09.786Z,57.06
2018-12-19T00:38:37.259Z,56.80
2018-12-19T00:41:04.721Z,56.78
2018-12-19T00:43:32.200Z,57.49
2018-12-19T00:45:59.654Z,56.54
2018-12-19T00:48:27.121Z,57.47
2018-12-19T00:50:54.596Z,57.06
2018-12-19T00:53:22.040Z,56.76
2018-12-19T00:55:49.539Z,57.40
2018-12-19T00:58:17.015Z,58.83
2018-12-19T01:00:44.471Z,57.69
2018-12-19T01:03:11.950Z,56.79
2018-12-19T01:05:39.416Z,56.88
2018-12-19T01:08:06.880Z,56.82
2018-12-19T01:10:34.420Z,56.56
2018-12-19T01:13:01.900Z,57.60
2018-12-19T01:15:29.371Z,57.51
2018-12-19T01:17:56.835Z,57.62
2018-12-19T01:20:24.330Z,57.67
2018-12-19T01:22:51.825Z,57.88
2018-12-19T01:25:19.284Z,58.28
2018-12-19T01:27:46.726Z,57.80
2018-12-19T01:30:14.175Z,58.17
2018-12-19T01:32:41.610Z,58.18
2018-12-19T01:35:09.080Z,59.15
2018-12-19T01:37:36.559Z,57.38
2018-12-19T01:40:06.880Z,57.34
2018-12-19T01:42:34.387Z,57.75
2018-12-19T01:45:01.830Z,58.01
2018-12-19T01:47:29.312Z,58.24
2018-12-19T01:49:56.758Z,57.75
2018-12-19T01:52:24.347Z,58.10
2018-12-19T01:54:51.799Z,58.90
2018-12-19T01:57:19.270Z,58.64
2018-12-19T01:59:46.756Z,58.44
2018-12-19T02:02:14.294Z,58.49
2018-12-19T02:04:41.753Z,59.01
2018-12-19T02:07:09.220Z,59.48
2018-12-19T02:09:36.660Z,62.50
2018-12-19T02:12:04.249Z,59.47
2018-12-19T02:14:31.729Z,58.18
2018-12-19T02:16:59.201Z,58.45
2018-12-19T02:19:26.651Z,58.75
2018-12-19T02:21:54.118Z,58.70
2018-12-19T02:24:21.582Z,59.05
2018-12-19T02:26:49.039Z,59.44
2018-12-19T02:29:16.484Z,58.68
2018-12-19T02:31:43.965Z,58.54
2018-12-19T02:34:11.588Z,58.72
2018-12-19T02:36:39.011Z,59.84
2018-12-19T02:39:07.066Z,59.30
2018-12-19T02:41:34.633Z,60.63
2018-12-19T02:44:02.304Z,61.77
2018-12-19T02:46:29.785Z,61.84
2018-12-19T02:48:57.243Z,60.02
2018-12-19T02:51:24.704Z,60.73
2018-12-19T02:53:52.192Z,61.92
2018-12-19T02:56:19.604Z,62.39
2018-12-19T02:58:47.099Z,64.23
2018-12-19T03:01:14.562Z,64.46
2018-12-19T03:03:42.000Z,64.55
2018-12-19T03:06:09.465Z,65.13
2018-12-19T03:08:36.888Z,65.27
2018-12-19T03:11:04.345Z,65.32
2018-12-19T03:13:32.179Z,65.42
2018-12-19T03:15:59.679Z,66.40
2018-12-19T03:18:27.128Z,66.84
2018-12-19T03:20:54.625Z,67.58
2018-12-19T03:23:22.063Z,66.37
2018-12-19T03:25:49.544Z,66.90
2018-12-19T03:28:17.013Z,66.63
2018-12-19T03:30:44.465Z,67.35
2018-12-19T03:33:11.925Z,67.27
2018-12-19T03:35:39.398Z,67.32
2018-12-19T03:38:06.851Z,67.35
2018-12-19T03:40:34.554Z,68.18
2018-12-19T03:43:02.007Z,67.36
2018-12-19T03:45:29.473Z,67.87
2018-12-19T03:47:56.901Z,67.56
2018-12-19T03:50:24.353Z,67.55
2018-12-19T03:52:51.834Z,67.95
2018-12-19T03:55:19.279Z,68.91
2018-12-19T03:57:46.734Z,68.02
2018-12-19T04:00:14.219Z,67.19
2018-12-19T04:02:41.685Z,67.10
2018-12-19T04:05:09.354Z,66.76
2018-12-19T04:07:36.795Z,67.21
2018-12-19T04:10:05.569Z,67.47
2018-12-19T04:12:33.028Z,67.34
2018-12-19T04:15:00.448Z,67.21
2018-12-19T04:17:27.933Z,67.54
2018-12-19T04:19:55.359Z,67.56
2018-12-19T04:22:22.838Z,67.60
2018-12-19T04:24:50.301Z,67.58
2018-12-19T04:27:17.846Z,67.60
2018-12-19T04:29:45.691Z,67.81
2018-12-19T04:32:13.169Z,69.51
2018-12-19T04:34:40.623Z,67.46
2018-12-19T04:37:08.101Z,66.47
2018-12-19T04:39:35.548Z,66.84
2018-12-19T04:42:03.013Z,67.13
2018-12-19T04:44:30.471Z,67.79
2018-12-19T04:46:57.944Z,67.93
2018-12-19T04:49:25.525Z,67.77
2018-12-19T04:51:53.000Z,67.33
2018-12-19T04:54:20.488Z,67.21
2018-12-19T04:56:47.934Z,67.38
2018-12-19T04:59:15.415Z,66.85
2018-12-19T05:01:42.875Z,66.97
2018-12-19T05:04:10.455Z,66.88
2018-12-19T05:06:37.951Z,68.54
2018-12-19T05:09:06.501Z,68.53
2018-12-19T05:11:34.367Z,66.17
2018-12-19T05:14:01.836Z,65.71
2018-12-19T05:16:29.281Z,66.60
2018-12-19T05:18:56.755Z,66.80
2018-12-19T05:21:24.251Z,66.76
2018-12-19T05:23:51.744Z,66.83
2018-12-19T05:26:19.183Z,66.11
2018-12-19T05:28:46.655Z,67.48
2018-12-19T05:31:14.099Z,67.94
2018-12-19T05:33:41.570Z,68.41
2018-12-19T05:36:09.030Z,67.89
2018-12-19T05:38:36.494Z,67.97
2018-12-19T05:41:03.936Z,68.22
2018-12-19T05:43:31.415Z,71.36
2018-12-19T05:45:58.869Z,68.85
2018-12-19T05:48:26.335Z,68.41
2018-12-19T05:50:53.807Z,69.46
2018-12-19T05:53:21.274Z,69.85
2018-12-19T05:55:48.741Z,69.76
2018-12-19T05:58:16.284Z,70.74
2018-12-19T06:03:23.221Z,71.47
2018-12-19T06:05:50.650Z,71.59
2018-12-19T06:08:18.118Z,71.85
2018-12-19T06:10:45.568Z,71.81
2018-12-19T06:13:13.013Z,71.42
2018-12-19T06:15:40.463Z,71.93
2018-12-19T06:18:07.929Z,73.50
2018-12-19T06:20:35.378Z,72.89
2018-12-19T06:23:02.857Z,72.75
2018-12-19T06:25:30.296Z,72.87
2018-12-19T06:27:57.869Z,72.91
2018-12-19T06:30:25.625Z,73.13
2018-12-19T06:32:53.059Z,74.53
2018-12-19T06:35:20.534Z,74.14
2018-12-19T06:37:48.036Z,74.69
2018-12-19T06:40:15.505Z,74.68
2018-12-19T06:42:42.977Z,75.01
2018-12-19T06:45:10.419Z,74.38
2018-12-19T06:47:37.923Z,75.34
2018-12-19T06:50:06.885Z,74.58
2018-12-19T06:52:34.367Z,74.47
2018-12-19T06:55:01.858Z,76.55
2018-12-19T06:57:29.308Z,74.46
2018-12-19T06:59:56.803Z,74.37
2018-12-19T07:02:24.289Z,74.66
2018-12-19T07:04:51.763Z,73.71
2018-12-19T07:07:19.251Z,75.06
2018-12-19T07:09:46.685Z,74.69
2018-12-19T07:12:14.172Z,74.61
2018-12-19T07:14:41.769Z,74.47
2018-12-19T07:17:09.308Z,74.66
2018-12-19T07:19:36.770Z,74.60
2018-12-19T07:22:04.235Z,74.93
2018-12-19T07:24:31.700Z,74.17
2018-12-19T07:26:59.195Z,73.93
2018-12-19T07:29:26.633Z,75.16
2018-12-19T07:31:54.129Z,74.38
2018-12-19T07:34:21.563Z,73.74
2018-12-19T07:36:49.032Z,73.96
2018-12-19T07:39:16.843Z,73.54
2018-12-19T07:41:44.405Z,73.29
2018-12-19T07:44:11.894Z,73.67
2018-12-19T07:46:39.339Z,74.22
2018-12-19T07:49:06.817Z,74.59
2018-12-19T07:51:34.292Z,74.00
2018-12-19T07:54:01.782Z,74.08
2018-12-19T07:56:29.251Z,74.25
2018-12-19T07:58:56.710Z,73.81
2018-12-19T08:01:24.211Z,73.37
2018-12-19T08:03:51.747Z,73.93
2018-12-19T08:06:19.233Z,75.38
2018-12-19T08:08:46.710Z,73.38
2018-12-19T08:11:14.147Z,73.47
2018-12-19T08:13:41.618Z,72.69
2018-12-19T08:16:09.089Z,73.65
2018-12-19T08:18:36.638Z,73.67
2018-12-19T08:21:04.132Z,73.82
2018-12-19T08:23:31.560Z,73.99
2018-12-19T08:25:59.018Z,74.64
2018-12-19T08:28:26.462Z,73.93
2018-12-19T08:30:53.917Z,73.97
2018-12-19T08:33:22.351Z,74.38
2018-12-19T08:35:49.949Z,74.50
2018-12-19T08:38:17.432Z,73.59
2018-12-19T08:40:44.913Z,74.10
2018-12-19T08:43:12.388Z,74.57
2018-12-19T08:45:40.182Z,73.85
2018-12-19T08:48:07.662Z,72.62
2018-12-19T08:50:35.129Z,72.80
2018-12-19T08:53:02.808Z,73.75
2018-12-19T08:55:30.368Z,72.90
2018-12-19T08:57:57.813Z,73.42
2018-12-19T09:00:25.315Z,73.63
2018-12-19T09:02:52.737Z,73.86
2018-12-19T09:05:20.217Z,72.83
2018-12-19T09:07:47.690Z,73.94
2018-12-19T09:10:15.166Z,73.18
2018-12-19T09:12:42.644Z,73.01
2018-12-19T09:15:10.079Z,73.19
2018-12-19T09:17:37.553Z,74.77
2018-12-19T09:20:05.282Z,73.13
2018-12-19T09:22:32.849Z,72.20
2018-12-19T09:25:00.307Z,72.62
2018-12-19T09:27:27.764Z,72.19
2018-12-19T09:29:55.238Z,72.26
2018-12-19T09:32:22.681Z,72.28
2018-12-19T09:34:50.167Z,73.11
2018-12-19T09:37:17.626Z,72.53
2018-12-19T09:39:45.102Z,72.48
2018-12-19T09:42:12.573Z,72.08
2018-12-19T09:44:40.607Z,72.50
2018-12-19T09:47:08.062Z,72.09
2018-12-19T09:49:35.537Z,72.46
2018-12-19T09:52:03.112Z,73.08
2018-12-19T09:54:30.592Z,71.99
2018-12-19T09:56:58.792Z,70.67
2018-12-19T09:59:26.299Z,70.98
2018-12-19T10:01:53.741Z,70.11
2018-12-19T10:04:21.340Z,70.55
2018-12-19T10:06:48.856Z,70.22
2018-12-19T10:09:16.307Z,71.19
2018-12-19T10:11:43.795Z,71.52
2018-12-19T10:14:11.282Z,71.66
2018-12-19T10:16:38.704Z,71.77
2018-12-19T10:19:06.266Z,70.67
2018-12-19T10:21:34.753Z,70.49
2018-12-19T10:24:02.237Z,70.39
2018-12-19T10:26:29.695Z,69.89
2018-12-19T10:28:57.152Z,69.56
2018-12-19T10:31:24.660Z,68.76
2018-12-19T10:33:52.084Z,68.74
2018-12-19T10:36:21.556Z,68.41
2018-12-19T10:38:49.036Z,68.06
2018-12-19T10:41:16.653Z,68.34
2018-12-19T10:43:44.102Z,67.00
2018-12-19T10:46:11.576Z,67.98
2018-12-19T10:48:39.027Z,68.40
2018-12-19T10:51:06.497Z,67.47
2018-12-19T10:53:34.009Z,67.59
2018-12-19T10:56:01.457Z,68.30
2018-12-19T10:58:28.903Z,67.41
2018-12-19T11:00:59.675Z,67.66
2018-12-19T11:03:27.172Z,70.96
2018-12-19T11:05:54.643Z,67.32
2018-12-19T11:08:22.137Z,65.83
2018-12-19T11:10:49.668Z,65.36
2018-12-19T11:13:17.163Z,66.40
2018-12-19T11:15:45.612Z,64.66
2018-12-19T11:18:13.086Z,66.90
2018-12-19T11:20:40.548Z,66.07
2018-12-19T11:23:08.031Z,67.06
2018-12-19T11:25:35.481Z,67.79
2018-12-19T11:28:02.984Z,68.14
2018-12-19T11:30:30.453Z,66.82
2018-12-19T11:32:58.558Z,67.70
2018-12-19T11:35:26.023Z,67.61
2018-12-19T11:37:53.472Z,68.08
2018-12-19T11:40:20.942Z,67.53
2018-12-19T11:42:48.403Z,66.40
2018-12-19T11:45:15.906Z,65.53
2018-12-19T11:47:43.368Z,66.38
2018-12-19T11:50:10.828Z,66.33
2018-12-19T11:52:39.187Z,66.71
2018-12-19T11:55:06.849Z,67.18
2018-12-19T11:57:34.488Z,65.85
2018-12-19T12:00:02.153Z,67.68
2018-12-19T12:02:29.620Z,66.91
2018-12-19T12:04:57.065Z,66.29
2018-12-19T12:07:24.822Z,66.69
2018-12-19T12:09:52.279Z,67.09
2018-12-19T12:12:19.749Z,67.33
2018-12-19T12:14:47.234Z,67.38
2018-12-19T12:17:14.692Z,66.10
2018-12-19T12:19:42.178Z,64.88
2018-12-19T12:22:09.632Z,64.71
2018-12-19T12:24:37.106Z,64.29
2018-12-19T12:27:04.577Z,65.18
2018-12-19T12:29:32.063Z,66.10
2018-12-19T12:31:59.534Z,66.43
2018-12-19T12:34:26.999Z,66.27
2018-12-19T12:36:54.458Z,66.71
2018-12-19T12:39:21.919Z,66.41
2018-12-19T12:41:52.299Z,64.90
2018-12-19T12:44:18.927Z,65.17
2018-12-19T12:46:46.404Z,65.65
2018-12-19T12:49:13.917Z,68.28
2018-12-19T12:51:41.359Z,66.73
2018-12-19T12:54:08.833Z,65.38
2018-12-19T12:56:36.285Z,64.07
2018-12-19T12:59:04.037Z,65.42
2018-12-19T13:01:31.513Z,65.06
2018-12-19T13:03:59.022Z,65.12
2018-12-19T13:06:26.619Z,66.34
2018-12-19T13:08:54.079Z,66.09
2018-12-19T13:11:21.568Z,65.69
2018-12-19T13:13:49.028Z,65.90
2018-12-19T13:16:16.749Z,65.27
2018-12-19T13:18:44.189Z,65.10
2018-12-19T13:21:11.662Z,65.39
2018-12-19T13:23:39.138Z,66.45
2018-12-19T13:26:06.712Z,67.35
2018-12-19T13:28:34.163Z,66.33
2018-12-19T13:31:01.596Z,65.28
2018-12-19T13:33:29.084Z,64.82
2018-12-19T13:35:56.539Z,64.51
2018-12-19T13:38:24.024Z,64.47
2018-12-19T13:40:51.456Z,64.13
2018-12-19T13:43:18.953Z,65.12
2018-12-19T13:45:46.411Z,65.32
2018-12-19T13:48:14.191Z,65.45
2018-12-19T13:50:41.683Z,65.20
2018-12-19T13:53:09.131Z,64.70
2018-12-19T13:55:36.606Z,64.43
2018-12-19T13:58:06.982Z,64.34
2018-12-19T14:00:33.597Z,68.65
2018-12-19T14:03:01.059Z,65.10
2018-12-19T14:05:28.552Z,64.47
2018-12-19T14:07:56.041Z,63.45
2018-12-19T14:10:23.538Z,63.44
2018-12-19T14:12:51.024Z,63.71
2018-12-19T14:15:18.494Z,63.35
2018-12-19T14:17:45.978Z,62.89
2018-12-19T14:20:13.524Z,64.05
2018-12-19T14:22:41.003Z,63.42
2018-12-19T14:25:08.593Z,63.83
2018-12-19T14:27:36.049Z,63.33
2018-12-19T14:30:04.733Z,63.68
2018-12-19T14:32:32.183Z,63.76
2018-12-19T14:35:00.042Z,63.91
2018-12-19T14:37:27.518Z,63.12
2018-12-19T14:39:55.132Z,62.60
2018-12-19T14:42:22.592Z,63.13
2018-12-19T14:44:50.053Z,62.29
2018-12-19T14:47:17.538Z,61.72
2018-12-19T14:49:45.058Z,62.44
2018-12-19T14:52:12.628Z,62.61
2018-12-19T14:54:40.116Z,63.01
2018-12-19T14:57:07.598Z,63.48
2018-12-19T14:59:35.058Z,63.41
2018-12-19T15:02:02.542Z,63.27
2018-12-19T15:04:29.961Z,63.29
2018-12-19T15:06:57.451Z,63.32
2018-12-19T15:09:24.897Z,63.31
2018-12-19T15:11:52.373Z,66.99
2018-12-19T15:14:19.865Z,63.84
2018-12-19T15:16:47.331Z,62.68
2018-12-19T15:19:14.849Z,63.68
2018-12-19T15:21:42.321Z,62.84
2018-12-19T15:24:09.946Z,63.80
2018-12-19T15:26:37.387Z,62.03
2018-12-19T15:29:04.886Z,63.78
2018-12-19T15:31:32.352Z,64.40
2018-12-19T15:33:59.843Z,64.18
2018-12-19T15:36:27.685Z,63.77
2018-12-19T15:38:55.155Z,64.10
2018-12-19T15:41:23.147Z,63.66
2018-12-19T15:43:50.622Z,63.41
2018-12-19T15:46:18.073Z,64.90
2018-12-19T15:48:45.555Z,64.20
2018-12-19T15:51:13.010Z,62.03
2018-12-19T15:53:40.457Z,62.98
2018-12-19T15:56:07.922Z,62.78
2018-12-19T15:58:35.390Z,63.51
2018-12-19T16:01:02.995Z,62.80
2018-12-19T16:03:30.465Z,63.42
2018-12-19T16:05:57.955Z,63.65
2018-12-19T16:08:25.421Z,62.92
2018-12-19T16:10:52.900Z,62.43
2018-12-19T16:13:20.384Z,62.83
2018-12-19T16:15:47.841Z,63.25
2018-12-19T16:18:16.131Z,64.00
2018-12-19T16:20:43.600Z,63.89
2018-12-19T16:23:11.069Z,65.17
2018-12-19T16:25:38.539Z,63.88
2018-12-19T16:28:06.029Z,63.37
2018-12-19T16:30:33.511Z,63.77
2018-12-19T16:33:00.999Z,62.91
2018-12-19T16:35:28.479Z,62.88
2018-12-19T16:37:56.033Z,63.71
2018-12-19T16:40:23.514Z,63.71
2018-12-19T16:42:51.000Z,63.59
2018-12-19T16:45:18.480Z,63.70
2018-12-19T16:47:45.936Z,63.57
2018-12-19T16:50:13.403Z,63.65
2018-12-19T16:52:40.854Z,62.61
2018-12-19T16:55:08.448Z,64.25
2018-12-19T16:57:36.113Z,66.54
2018-12-19T17:00:05.763Z,63.89
2018-12-19T17:02:33.205Z,62.25
2018-12-19T17:05:00.761Z,63.48
2018-12-19T17:07:28.219Z,63.46
2018-12-19T17:09:55.711Z,63.65
2018-12-19T17:12:23.151Z,64.39
2018-12-19T17:14:50.667Z,64.58
2018-12-19T17:17:18.158Z,64.39
2018-12-19T17:19:45.610Z,64.48
2018-12-19T17:22:13.097Z,64.72
2018-12-19T17:24:41.132Z,64.22
2018-12-19T17:27:08.630Z,64.07
2018-12-19T17:29:36.135Z,64.46
2018-12-19T17:32:03.893Z,65.51
2018-12-19T17:34:31.375Z,64.58
2018-12-19T17:36:58.884Z,63.11
2018-12-19T17:39:26.351Z,63.53
2018-12-19T17:41:53.791Z,62.69
2018-12-19T17:44:21.274Z,63.67
2018-12-19T17:46:48.777Z,63.54
2018-12-19T17:49:16.220Z,65.00
2018-12-19T17:51:43.687Z,64.58
2018-12-19T17:54:11.181Z,65.09
2018-12-19T17:56:38.645Z,64.78
2018-12-19T17:59:06.136Z,63.22
2018-12-19T18:01:33.630Z,63.99
2018-12-19T18:04:01.067Z,64.15
2018-12-19T18:06:28.574Z,63.86
2018-12-19T18:08:56.015Z,64.94
2018-12-19T18:11:23.493Z,64.05
2018-12-19T18:13:51.278Z,63.14
2018-12-19T18:16:18.751Z,63.39
2018-12-19T18:18:46.355Z,63.86
2018-12-19T18:21:13.881Z,64.57
2018-12-19T18:23:41.300Z,63.47
2018-12-19T18:26:08.737Z,63.44
2018-12-19T18:28:36.236Z,63.70
2018-12-19T18:31:03.900Z,64.94
2018-12-19T18:33:31.433Z,64.32
2018-12-19T18:35:58.916Z,64.03
2018-12-19T18:38:26.397Z,64.21
2018-12-19T18:40:53.867Z,64.26
2018-12-19T18:43:21.312Z,65.76
2018-12-19T18:45:48.823Z,64.57
2018-12-19T18:48:16.277Z,63.38
2018-12-19T18:50:43.782Z,64.04
2018-12-19T18:53:11.275Z,63.90
2018-12-19T18:55:38.726Z,64.00
2018-12-19T18:58:06.236Z,63.40
2018-12-19T19:00:34.840Z,64.37
2018-12-19T19:03:02.465Z,64.74
2018-12-19T19:05:30.016Z,63.98
2018-12-19T19:07:57.580Z,64.77
2018-12-19T19:10:25.112Z,64.46
2018-12-19T19:12:52.622Z,64.72
2018-12-19T19:15:20.087Z,64.76
2018-12-19T19:17:47.572Z,65.01
2018-12-19T19:20:15.052Z,66.41
2018-12-19T19:22:42.526Z,65.20
2018-12-19T19:25:09.997Z,65.27
2018-12-19T19:27:37.467Z,65.29
2018-12-19T19:30:07.122Z,65.08
2018-12-19T19:32:34.583Z,65.26
2018-12-19T19:35:02.163Z,66.14
2018-12-19T19:37:29.668Z,65.86
2018-12-19T19:39:57.128Z,66.45
2018-12-19T19:42:24.588Z,66.63
2018-12-19T19:44:52.067Z,65.73
2018-12-19T19:47:19.541Z,66.79
2018-12-19T19:49:47.007Z,66.43
2018-12-19T19:52:14.554Z,66.40
2018-12-19T19:54:42.032Z,67.51
2018-12-19T19:57:09.473Z,66.38
2018-12-19T19:59:36.963Z,66.72
2018-12-19T20:02:04.423Z,67.02
2018-12-19T20:04:31.899Z,67.17
2018-12-19T20:07:01.110Z,66.97
2018-12-19T20:09:28.797Z,67.37
2018-12-19T20:11:56.257Z,66.82
2018-12-19T20:14:23.744Z,67.86
2018-12-19T20:16:56.827Z,68.05
2018-12-19T20:19:24.308Z,67.73
2018-12-19T20:21:51.858Z,67.35
2018-12-19T20:24:19.344Z,68.50
2018-12-19T20:26:46.797Z,68.00
2018-12-19T20:29:14.544Z,70.07
2018-12-19T20:31:42.058Z,71.85
2018-12-19T20:34:09.560Z,68.79
2018-12-19T20:36:37.033Z,68.31
2018-12-19T20:39:06.717Z,68.32
2018-12-19T20:41:34.164Z,68.18
2018-12-19T20:44:01.649Z,68.67
2018-12-19T20:46:29.204Z,69.54
2018-12-19T20:48:57.342Z,69.94
2018-12-19T20:51:24.813Z,70.25
2018-12-19T20:53:52.317Z,69.51
2018-12-19T20:56:19.917Z,69.18
2018-12-19T20:58:47.560Z,69.39
2018-12-19T21:01:15.314Z,68.62
2018-12-19T21:03:42.808Z,68.50
2018-12-19T21:06:10.277Z,72.35
2018-12-19T21:08:37.894Z,69.19
2018-12-19T21:11:05.374Z,67.19
2018-12-19T21:13:32.859Z,68.28
2018-12-19T21:16:00.424Z,69.01
2018-12-19T21:18:33.648Z,68.77
2018-12-19T21:21:01.202Z,69.72
2018-12-19T21:23:28.654Z,70.19
2018-12-19T21:25:56.158Z,70.93
2018-12-19T21:28:23.628Z,70.55
2018-12-19T21:30:51.083Z,69.65
2018-12-19T21:33:18.519Z,69.59
2018-12-19T21:35:45.986Z,69.50
2018-12-19T21:38:13.474Z,69.62
2018-12-19T21:40:40.987Z,69.72
2018-12-19T21:43:08.581Z,69.68
2018-12-19T21:45:36.132Z,67.26
2018-12-19T21:48:03.594Z,68.36
2018-12-19T21:50:31.230Z,68.43
2018-12-19T21:52:59.224Z,69.66
2018-12-19T21:55:26.810Z,69.55
2018-12-19T21:57:54.428Z,70.46
2018-12-19T22:00:23.884Z,70.89
2018-12-19T22:02:51.552Z,70.84
2018-12-19T22:05:19.236Z,71.21
2018-12-19T22:07:46.753Z,70.62
2018-12-19T22:10:14.229Z,69.63
2018-12-19T22:12:41.699Z,69.98
2018-12-19T22:15:09.314Z,70.04
2018-12-19T22:17:42.849Z,71.37
2018-12-19T22:20:10.504Z,69.73
2018-12-19T22:22:37.992Z,69.41
2018-12-19T22:25:05.581Z,69.98
2018-12-19T22:27:33.964Z,69.77
2018-12-19T22:30:01.538Z,69.41
2018-12-19T22:32:29.126Z,70.36
2018-12-19T22:34:56.583Z,70.73
2018-12-19T22:37:24.110Z,70.77
2018-12-19T22:39:51.824Z,69.99
2018-12-19T22:42:19.361Z,70.75
2018-12-19T22:44:46.974Z,70.24
2018-12-19T22:47:14.924Z,70.62
2018-12-19T22:49:42.398Z,70.98
2018-12-19T22:52:09.893Z,73.34
2018-12-19T22:54:37.432Z,71.12
2018-12-19T22:57:04.986Z,70.02
2018-12-19T22:59:32.674Z,70.44
2018-12-19T23:02:05.625Z,70.03
2018-12-19T23:04:33.214Z,70.43
2018-12-19T23:09:38.495Z,71.74
2018-12-19T23:12:06.168Z,71.32
2018-12-19T23:14:33.614Z,71.26
2018-12-19T23:17:03.205Z,71.19
2018-12-19T23:19:30.800Z,71.18
2018-12-19T23:21:58.392Z,71.10
2018-12-19T23:24:25.847Z,71.34
2018-12-19T23:26:53.550Z,71.11
2018-12-19T23:29:21.255Z,71.59
2018-12-19T23:31:49.008Z,70.24
2018-12-19T23:34:16.492Z,70.07
2018-12-19T23:36:43.961Z,70.28
2018-12-19T23:39:11.443Z,69.68
2018-12-19T23:41:39.037Z,69.77
2018-12-19T23:44:06.607Z,72.25
2018-12-19T23:46:34.525Z,72.89
2018-12-19T23:49:02.128Z,72.96
2018-12-19T23:51:29.687Z,72.62
2018-12-19T23:53:57.386Z,72.36
2018-12-19T23:56:25.064Z,72.69
2018-12-19T23:58:52.550Z,72.16
